sensor_id;sensor_type;location;lat;lon;timestamp;P1;durP1;ratioP1;P2;durP2;ratioP2
44913;SDS011;30650;52.206;20.924;2022-11-02T00:00:27;56.02;;;27.40;;
44913;SDS011;30650;52.206;20.924;2022-11-02T00:01:27;55.73;;;27.77;;
44913;SDS011;30650;52.206;20.924;2022-11-02T00:02:34;56.10;;;26.00;;
44913;SDS011;30650;52.206;20.924;2022-11-02T00:03:31;62.27;;;27.00;;
44913;SDS011;30650;52.206;20.924;2022-11-02T00:04:27;63.25;;;27.80;;
44913;SDS011;30650;52.206;20.924;2022-11-02T00:05:23;61.90;;;29.32;;
44913;SDS011;30650;52.206;20.924;2022-11-02T00:06:20;55.58;;;28.92;;
44913;SDS011;30650;52.206;20.924;2022-11-02T00:07:16;61.08;;;28.23;;
44913;SDS011;30650;52.206;20.924;2022-11-02T00:08:13;51.90;;;25.88;;
44913;SDS011;30650;52.206;20.924;2022-11-02T00:09:09;47.17;;;25.08;;
44913;SDS011;30650;52.206;20.924;2022-11-02T00:10:06;55.35;;;28.05;;
44913;SDS011;30650;52.206;20.924;2022-11-02T00:11:04;58.65;;;28.45;;
44913;SDS011;30650;52.206;20.924;2022-11-02T00:12:01;52.85;;;26.65;;
44913;SDS011;30650;52.206;20.924;2022-11-02T00:12:57;52.93;;;26.97;;
44913;SDS011;30650;52.206;20.924;2022-11-02T00:13:54;56.77;;;27.15;;
44913;SDS011;30650;52.206;20.924;2022-11-02T00:14:50;51.60;;;27.75;;
44913;SDS011;30650;52.206;20.924;2022-11-02T00:15:47;54.05;;;29.23;;
44913;SDS011;30650;52.206;20.924;2022-11-02T00:16:43;66.07;;;32.45;;
44913;SDS011;30650;52.206;20.924;2022-11-02T00:17:45;56.98;;;30.75;;
44913;SDS011;30650;52.206;20.924;2022-11-02T00:18:40;64.25;;;32.28;;
44913;SDS011;30650;52.206;20.924;2022-11-02T00:19:40;61.98;;;33.30;;
44913;SDS011;30650;52.206;20.924;2022-11-02T00:20:36;60.98;;;32.38;;
44913;SDS011;30650;52.206;20.924;2022-11-02T00:21:35;57.25;;;29.77;;
44913;SDS011;30650;52.206;20.924;2022-11-02T00:22:32;62.90;;;30.95;;
44913;SDS011;30650;52.206;20.924;2022-11-02T00:23:29;59.35;;;30.32;;
44913;SDS011;30650;52.206;20.924;2022-11-02T00:24:27;63.80;;;30.60;;
44913;SDS011;30650;52.206;20.924;2022-11-02T00:25:27;65.67;;;31.23;;
44913;SDS011;30650;52.206;20.924;2022-11-02T00:26:25;60.60;;;28.95;;
44913;SDS011;30650;52.206;20.924;2022-11-02T00:27:22;67.10;;;30.20;;
44913;SDS011;30650;52.206;20.924;2022-11-02T00:28:19;60.90;;;29.70;;
44913;SDS011;30650;52.206;20.924;2022-11-02T00:29:15;61.75;;;30.68;;
44913;SDS011;30650;52.206;20.924;2022-11-02T00:30:12;67.32;;;31.55;;
44913;SDS011;30650;52.206;20.924;2022-11-02T00:31:09;65.17;;;31.93;;
44913;SDS011;30650;52.206;20.924;2022-11-02T00:32:05;64.42;;;30.92;;
44913;SDS011;30650;52.206;20.924;2022-11-02T00:33:02;62.48;;;31.17;;
44913;SDS011;30650;52.206;20.924;2022-11-02T00:33:58;64.30;;;30.80;;
44913;SDS011;30650;52.206;20.924;2022-11-02T00:34:55;57.00;;;29.25;;
44913;SDS011;30650;52.206;20.924;2022-11-02T00:35:51;70.60;;;30.95;;
44913;SDS011;30650;52.206;20.924;2022-11-02T00:36:49;60.20;;;29.82;;
44913;SDS011;30650;52.206;20.924;2022-11-02T00:37:45;70.57;;;33.30;;
44913;SDS011;30650;52.206;20.924;2022-11-02T00:38:42;67.03;;;32.13;;
44913;SDS011;30650;52.206;20.924;2022-11-02T00:39:38;73.10;;;34.88;;
44913;SDS011;30650;52.206;20.924;2022-11-02T00:40:34;70.40;;;33.75;;
44913;SDS011;30650;52.206;20.924;2022-11-02T00:41:31;64.42;;;32.50;;
44913;SDS011;30650;52.206;20.924;2022-11-02T00:42:27;74.53;;;36.95;;
44913;SDS011;30650;52.206;20.924;2022-11-02T00:43:24;75.30;;;36.48;;
44913;SDS011;30650;52.206;20.924;2022-11-02T00:44:20;81.67;;;38.08;;
44913;SDS011;30650;52.206;20.924;2022-11-02T00:45:16;74.67;;;38.60;;
44913;SDS011;30650;52.206;20.924;2022-11-02T00:46:13;81.32;;;40.67;;
44913;SDS011;30650;52.206;20.924;2022-11-02T00:47:09;77.87;;;38.85;;
44913;SDS011;30650;52.206;20.924;2022-11-02T00:48:06;79.42;;;40.17;;
44913;SDS011;30650;52.206;20.924;2022-11-02T00:49:02;71.07;;;34.23;;
44913;SDS011;30650;52.206;20.924;2022-11-02T00:49:59;74.17;;;35.70;;
44913;SDS011;30650;52.206;20.924;2022-11-02T00:50:55;72.67;;;33.63;;
44913;SDS011;30650;52.206;20.924;2022-11-02T00:51:51;73.10;;;33.30;;
44913;SDS011;30650;52.206;20.924;2022-11-02T00:52:48;78.70;;;34.08;;
44913;SDS011;30650;52.206;20.924;2022-11-02T00:53:44;68.72;;;32.73;;
44913;SDS011;30650;52.206;20.924;2022-11-02T00:54:40;78.72;;;36.68;;
44913;SDS011;30650;52.206;20.924;2022-11-02T00:55:37;69.85;;;33.30;;
44913;SDS011;30650;52.206;20.924;2022-11-02T00:56:33;65.95;;;31.93;;
44913;SDS011;30650;52.206;20.924;2022-11-02T00:57:29;71.28;;;31.75;;
44913;SDS011;30650;52.206;20.924;2022-11-02T00:58:26;65.97;;;32.25;;
44913;SDS011;30650;52.206;20.924;2022-11-02T00:59:22;74.20;;;31.20;;
44913;SDS011;30650;52.206;20.924;2022-11-02T01:00:19;73.80;;;34.33;;
44913;SDS011;30650;52.206;20.924;2022-11-02T01:01:15;67.75;;;36.15;;
44913;SDS011;30650;52.206;20.924;2022-11-02T01:02:12;65.97;;;35.10;;
44913;SDS011;30650;52.206;20.924;2022-11-02T01:03:08;74.07;;;35.75;;
44913;SDS011;30650;52.206;20.924;2022-11-02T01:04:04;73.87;;;36.63;;
44913;SDS011;30650;52.206;20.924;2022-11-02T01:05:01;80.57;;;39.13;;
44913;SDS011;30650;52.206;20.924;2022-11-02T01:06:05;79.35;;;36.00;;
44913;SDS011;30650;52.206;20.924;2022-11-02T01:07:05;82.80;;;38.55;;
44913;SDS011;30650;52.206;20.924;2022-11-02T01:08:01;80.70;;;39.35;;
44913;SDS011;30650;52.206;20.924;2022-11-02T01:08:58;77.35;;;33.30;;
44913;SDS011;30650;52.206;20.924;2022-11-02T01:09:55;69.53;;;32.38;;
44913;SDS011;30650;52.206;20.924;2022-11-02T01:10:51;68.40;;;32.80;;
44913;SDS011;30650;52.206;20.924;2022-11-02T01:11:47;67.05;;;32.03;;
44913;SDS011;30650;52.206;20.924;2022-11-02T01:12:44;67.27;;;30.35;;
44913;SDS011;30650;52.206;20.924;2022-11-02T01:13:40;64.70;;;29.82;;
44913;SDS011;30650;52.206;20.924;2022-11-02T01:14:37;65.10;;;30.50;;
44913;SDS011;30650;52.206;20.924;2022-11-02T01:15:35;65.32;;;31.52;;
44913;SDS011;30650;52.206;20.924;2022-11-02T01:16:32;61.13;;;29.92;;
44913;SDS011;30650;52.206;20.924;2022-11-02T01:17:28;65.20;;;30.57;;
44913;SDS011;30650;52.206;20.924;2022-11-02T01:18:25;62.58;;;29.92;;
44913;SDS011;30650;52.206;20.924;2022-11-02T01:19:21;65.30;;;29.72;;
44913;SDS011;30650;52.206;20.924;2022-11-02T01:20:18;65.90;;;30.68;;
44913;SDS011;30650;52.206;20.924;2022-11-02T01:21:15;60.78;;;29.60;;
44913;SDS011;30650;52.206;20.924;2022-11-02T01:22:11;66.67;;;32.20;;
44913;SDS011;30650;52.206;20.924;2022-11-02T01:23:07;72.90;;;33.40;;
44913;SDS011;30650;52.206;20.924;2022-11-02T01:24:04;64.75;;;34.58;;
44913;SDS011;30650;52.206;20.924;2022-11-02T01:25:01;70.90;;;36.03;;
44913;SDS011;30650;52.206;20.924;2022-11-02T01:26:08;83.90;;;38.20;;
44913;SDS011;30650;52.206;20.924;2022-11-02T01:27:04;73.28;;;36.65;;
44913;SDS011;30650;52.206;20.924;2022-11-02T01:28:01;78.97;;;37.05;;
44913;SDS011;30650;52.206;20.924;2022-11-02T01:28:57;74.10;;;33.83;;
44913;SDS011;30650;52.206;20.924;2022-11-02T01:29:54;67.00;;;32.15;;
44913;SDS011;30650;52.206;20.924;2022-11-02T01:30:50;77.92;;;34.75;;
44913;SDS011;30650;52.206;20.924;2022-11-02T01:31:47;66.22;;;29.98;;
44913;SDS011;30650;52.206;20.924;2022-11-02T01:32:43;79.60;;;33.60;;
44913;SDS011;30650;52.206;20.924;2022-11-02T01:33:46;77.70;;;33.53;;
44913;SDS011;30650;52.206;20.924;2022-11-02T01:34:43;73.78;;;32.13;;
44913;SDS011;30650;52.206;20.924;2022-11-02T01:35:39;65.83;;;33.45;;
44913;SDS011;30650;52.206;20.924;2022-11-02T01:36:35;64.92;;;32.08;;
44913;SDS011;30650;52.206;20.924;2022-11-02T01:37:32;73.60;;;31.20;;
44913;SDS011;30650;52.206;20.924;2022-11-02T01:38:30;69.42;;;31.65;;
44913;SDS011;30650;52.206;20.924;2022-11-02T01:39:27;72.08;;;31.87;;
44913;SDS011;30650;52.206;20.924;2022-11-02T01:40:23;83.42;;;34.90;;
44913;SDS011;30650;52.206;20.924;2022-11-02T01:41:20;75.42;;;33.70;;
44913;SDS011;30650;52.206;20.924;2022-11-02T01:42:18;79.95;;;34.63;;
44913;SDS011;30650;52.206;20.924;2022-11-02T01:43:29;80.47;;;35.83;;
44913;SDS011;30650;52.206;20.924;2022-11-02T01:44:28;75.75;;;37.00;;
44913;SDS011;30650;52.206;20.924;2022-11-02T01:45:27;84.85;;;39.13;;
44913;SDS011;30650;52.206;20.924;2022-11-02T01:46:27;96.75;;;41.30;;
44913;SDS011;30650;52.206;20.924;2022-11-02T01:47:36;89.22;;;40.08;;
44913;SDS011;30650;52.206;20.924;2022-11-02T01:48:36;83.70;;;39.60;;
44913;SDS011;30650;52.206;20.924;2022-11-02T01:49:42;77.20;;;35.08;;
44913;SDS011;30650;52.206;20.924;2022-11-02T01:50:41;80.53;;;34.73;;
44913;SDS011;30650;52.206;20.924;2022-11-02T01:51:45;75.30;;;33.65;;
44913;SDS011;30650;52.206;20.924;2022-11-02T01:52:49;77.85;;;35.48;;
44913;SDS011;30650;52.206;20.924;2022-11-02T01:53:45;75.32;;;34.63;;
44913;SDS011;30650;52.206;20.924;2022-11-02T01:54:45;78.17;;;32.85;;
44913;SDS011;30650;52.206;20.924;2022-11-02T01:55:48;93.22;;;36.15;;
44913;SDS011;30650;52.206;20.924;2022-11-02T01:56:48;86.45;;;36.90;;
44913;SDS011;30650;52.206;20.924;2022-11-02T01:57:48;75.72;;;33.02;;
44913;SDS011;30650;52.206;20.924;2022-11-02T01:59:05;88.25;;;37.98;;
44913;SDS011;30650;52.206;20.924;2022-11-02T02:01:07;90.62;;;35.92;;
44913;SDS011;30650;52.206;20.924;2022-11-02T02:02:04;78.07;;;34.53;;
44913;SDS011;30650;52.206;20.924;2022-11-02T02:03:11;77.72;;;35.40;;
44913;SDS011;30650;52.206;20.924;2022-11-02T02:04:07;85.12;;;35.70;;
44913;SDS011;30650;52.206;20.924;2022-11-02T02:05:06;87.12;;;34.55;;
44913;SDS011;30650;52.206;20.924;2022-11-02T02:06:07;90.07;;;37.38;;
44913;SDS011;30650;52.206;20.924;2022-11-02T02:07:07;91.47;;;41.40;;
44913;SDS011;30650;52.206;20.924;2022-11-02T02:08:06;98.03;;;44.33;;
44913;SDS011;30650;52.206;20.924;2022-11-02T02:09:04;98.87;;;44.35;;
44913;SDS011;30650;52.206;20.924;2022-11-02T02:10:03;95.28;;;42.30;;
44913;SDS011;30650;52.206;20.924;2022-11-02T02:11:01;92.72;;;42.38;;
44913;SDS011;30650;52.206;20.924;2022-11-02T02:11:57;88.67;;;38.28;;
44913;SDS011;30650;52.206;20.924;2022-11-02T02:12:54;90.30;;;37.03;;
44913;SDS011;30650;52.206;20.924;2022-11-02T02:13:50;86.72;;;35.23;;
44913;SDS011;30650;52.206;20.924;2022-11-02T02:14:49;90.07;;;37.13;;
44913;SDS011;30650;52.206;20.924;2022-11-02T02:15:49;92.60;;;38.42;;
44913;SDS011;30650;52.206;20.924;2022-11-02T02:18:39;99.10;;;38.33;;
44913;SDS011;30650;52.206;20.924;2022-11-02T02:21:50;88.50;;;39.00;;
44913;SDS011;30650;52.206;20.924;2022-11-02T02:22:22;88.85;;;38.42;;
44913;SDS011;30650;52.206;20.924;2022-11-02T02:23:58;105.85;;;43.20;;
44913;SDS011;30650;52.206;20.924;2022-11-02T02:28:57;107.90;;;40.88;;
44913;SDS011;30650;52.206;20.924;2022-11-02T02:31:03;113.28;;;43.58;;
44913;SDS011;30650;52.206;20.924;2022-11-02T02:32:15;104.80;;;40.38;;
44913;SDS011;30650;52.206;20.924;2022-11-02T02:34:33;102.32;;;42.62;;
44913;SDS011;30650;52.206;20.924;2022-11-02T02:35:44;103.55;;;41.00;;
44913;SDS011;30650;52.206;20.924;2022-11-02T02:37:56;111.85;;;48.68;;
44913;SDS011;30650;52.206;20.924;2022-11-02T02:39:09;116.60;;;48.65;;
44913;SDS011;30650;52.206;20.924;2022-11-02T02:40:12;118.02;;;48.90;;
44913;SDS011;30650;52.206;20.924;2022-11-02T02:42:32;112.70;;;41.95;;
44913;SDS011;30650;52.206;20.924;2022-11-02T02:43:52;102.92;;;42.08;;
44913;SDS011;30650;52.206;20.924;2022-11-02T02:46:21;103.45;;;41.63;;
44913;SDS011;30650;52.206;20.924;2022-11-02T02:47:19;103.92;;;41.85;;
44913;SDS011;30650;52.206;20.924;2022-11-02T02:48:19;111.17;;;43.02;;
44913;SDS011;30650;52.206;20.924;2022-11-02T02:49:21;97.17;;;39.83;;
44913;SDS011;30650;52.206;20.924;2022-11-02T02:50:24;99.03;;;40.50;;
44913;SDS011;30650;52.206;20.924;2022-11-02T02:51:30;101.95;;;45.00;;
44913;SDS011;30650;52.206;20.924;2022-11-02T02:52:26;106.58;;;41.65;;
44913;SDS011;30650;52.206;20.924;2022-11-02T02:53:30;96.25;;;41.20;;
44913;SDS011;30650;52.206;20.924;2022-11-02T02:54:37;99.35;;;39.80;;
44913;SDS011;30650;52.206;20.924;2022-11-02T02:55:38;98.58;;;40.70;;
44913;SDS011;30650;52.206;20.924;2022-11-02T02:56:41;110.70;;;45.08;;
44913;SDS011;30650;52.206;20.924;2022-11-02T02:57:41;103.45;;;46.33;;
44913;SDS011;30650;52.206;20.924;2022-11-02T02:59:02;115.75;;;48.05;;
44913;SDS011;30650;52.206;20.924;2022-11-02T03:00:02;114.17;;;50.52;;
44913;SDS011;30650;52.206;20.924;2022-11-02T03:00:59;128.95;;;51.73;;
44913;SDS011;30650;52.206;20.924;2022-11-02T03:01:56;122.53;;;51.63;;
44913;SDS011;30650;52.206;20.924;2022-11-02T03:02:53;98.05;;;41.85;;
44913;SDS011;30650;52.206;20.924;2022-11-02T03:03:55;110.32;;;44.38;;
44913;SDS011;30650;52.206;20.924;2022-11-02T03:04:51;111.20;;;44.13;;
44913;SDS011;30650;52.206;20.924;2022-11-02T03:06:11;101.62;;;42.38;;
44913;SDS011;30650;52.206;20.924;2022-11-02T03:07:16;94.67;;;39.65;;
44913;SDS011;30650;52.206;20.924;2022-11-02T03:08:18;93.72;;;39.18;;
44913;SDS011;30650;52.206;20.924;2022-11-02T03:09:33;97.75;;;43.60;;
44913;SDS011;30650;52.206;20.924;2022-11-02T03:15:24;96.47;;;39.75;;
44913;SDS011;30650;52.206;20.924;2022-11-02T03:16:42;110.55;;;47.62;;
44913;SDS011;30650;52.206;20.924;2022-11-02T03:18:01;107.92;;;50.78;;
44913;SDS011;30650;52.206;20.924;2022-11-02T03:25:04;105.12;;;44.15;;
44913;SDS011;30650;52.206;20.924;2022-11-02T03:27:24;103.60;;;44.88;;
44913;SDS011;30650;52.206;20.924;2022-11-02T03:30:17;107.95;;;46.83;;
44913;SDS011;30650;52.206;20.924;2022-11-02T03:34:03;106.43;;;43.48;;
44913;SDS011;30650;52.206;20.924;2022-11-02T03:35:14;106.25;;;43.15;;
44913;SDS011;30650;52.206;20.924;2022-11-02T03:36:17;104.70;;;43.95;;
44913;SDS011;30650;52.206;20.924;2022-11-02T03:37:18;93.87;;;41.83;;
44913;SDS011;30650;52.206;20.924;2022-11-02T03:38:21;115.00;;;44.95;;
44913;SDS011;30650;52.206;20.924;2022-11-02T03:39:27;100.12;;;42.30;;
44913;SDS011;30650;52.206;20.924;2022-11-02T03:40:37;101.78;;;40.55;;
44913;SDS011;30650;52.206;20.924;2022-11-02T03:41:38;101.42;;;41.63;;
44913;SDS011;30650;52.206;20.924;2022-11-02T03:42:37;99.97;;;42.00;;
44913;SDS011;30650;52.206;20.924;2022-11-02T03:43:35;98.92;;;40.98;;
44913;SDS011;30650;52.206;20.924;2022-11-02T03:44:36;101.07;;;42.30;;
44913;SDS011;30650;52.206;20.924;2022-11-02T03:45:35;91.95;;;40.98;;
44913;SDS011;30650;52.206;20.924;2022-11-02T03:46:36;104.07;;;43.00;;
44913;SDS011;30650;52.206;20.924;2022-11-02T03:47:35;106.05;;;43.45;;
44913;SDS011;30650;52.206;20.924;2022-11-02T03:48:38;87.35;;;40.40;;
44913;SDS011;30650;52.206;20.924;2022-11-02T03:49:38;90.10;;;39.20;;
44913;SDS011;30650;52.206;20.924;2022-11-02T03:50:37;82.33;;;37.45;;
44913;SDS011;30650;52.206;20.924;2022-11-02T03:51:39;108.95;;;45.33;;
44913;SDS011;30650;52.206;20.924;2022-11-02T03:52:40;107.65;;;47.08;;
44913;SDS011;30650;52.206;20.924;2022-11-02T03:53:58;109.55;;;48.20;;
44913;SDS011;30650;52.206;20.924;2022-11-02T03:55:06;113.40;;;48.63;;
44913;SDS011;30650;52.206;20.924;2022-11-02T03:56:10;96.40;;;45.03;;
44913;SDS011;30650;52.206;20.924;2022-11-02T03:57:16;96.90;;;40.88;;
44913;SDS011;30650;52.206;20.924;2022-11-02T03:58:14;99.62;;;42.55;;
44913;SDS011;30650;52.206;20.924;2022-11-02T03:59:10;102.58;;;42.40;;
44913;SDS011;30650;52.206;20.924;2022-11-02T04:00:14;98.78;;;42.90;;
44913;SDS011;30650;52.206;20.924;2022-11-02T04:01:10;94.15;;;41.25;;
44913;SDS011;30650;52.206;20.924;2022-11-02T04:02:08;95.50;;;41.10;;
44913;SDS011;30650;52.206;20.924;2022-11-02T04:03:05;101.22;;;40.80;;
44913;SDS011;30650;52.206;20.924;2022-11-02T04:04:02;93.95;;;40.73;;
44913;SDS011;30650;52.206;20.924;2022-11-02T04:04:59;95.15;;;42.35;;
44913;SDS011;30650;52.206;20.924;2022-11-02T04:05:56;88.35;;;40.67;;
44913;SDS011;30650;52.206;20.924;2022-11-02T04:06:52;104.85;;;43.75;;
44913;SDS011;30650;52.206;20.924;2022-11-02T04:07:50;112.90;;;45.48;;
44913;SDS011;30650;52.206;20.924;2022-11-02T04:09:06;91.22;;;39.63;;
44913;SDS011;30650;52.206;20.924;2022-11-02T04:10:04;95.35;;;40.38;;
44913;SDS011;30650;52.206;20.924;2022-11-02T04:11:01;94.95;;;42.25;;
44913;SDS011;30650;52.206;20.924;2022-11-02T04:12:15;97.22;;;38.63;;
44913;SDS011;30650;52.206;20.924;2022-11-02T04:13:31;100.70;;;41.48;;
44913;SDS011;30650;52.206;20.924;2022-11-02T04:14:45;102.50;;;40.95;;
44913;SDS011;30650;52.206;20.924;2022-11-02T04:15:42;90.45;;;42.70;;
44913;SDS011;30650;52.206;20.924;2022-11-02T04:16:38;91.32;;;41.28;;
44913;SDS011;30650;52.206;20.924;2022-11-02T04:17:35;93.17;;;43.23;;
44913;SDS011;30650;52.206;20.924;2022-11-02T04:18:50;92.42;;;40.33;;
44913;SDS011;30650;52.206;20.924;2022-11-02T04:20:05;97.80;;;40.45;;
44913;SDS011;30650;52.206;20.924;2022-11-02T04:21:02;89.67;;;40.28;;
44913;SDS011;30650;52.206;20.924;2022-11-02T04:21:58;95.38;;;41.23;;
44913;SDS011;30650;52.206;20.924;2022-11-02T04:23:13;94.65;;;41.53;;
44913;SDS011;30650;52.206;20.924;2022-11-02T04:24:28;86.30;;;40.38;;
44913;SDS011;30650;52.206;20.924;2022-11-02T04:25:29;84.90;;;40.33;;
44913;SDS011;30650;52.206;20.924;2022-11-02T04:26:25;87.00;;;39.00;;
44913;SDS011;30650;52.206;20.924;2022-11-02T04:27:22;93.58;;;39.95;;
44913;SDS011;30650;52.206;20.924;2022-11-02T04:28:19;91.12;;;40.67;;
44913;SDS011;30650;52.206;20.924;2022-11-02T04:29:16;81.22;;;39.55;;
44913;SDS011;30650;52.206;20.924;2022-11-02T04:30:13;79.82;;;37.58;;
44913;SDS011;30650;52.206;20.924;2022-11-02T04:31:11;88.20;;;38.23;;
44913;SDS011;30650;52.206;20.924;2022-11-02T04:32:08;84.13;;;37.15;;
44913;SDS011;30650;52.206;20.924;2022-11-02T04:33:05;86.60;;;39.45;;
44913;SDS011;30650;52.206;20.924;2022-11-02T04:34:20;87.72;;;40.33;;
44913;SDS011;30650;52.206;20.924;2022-11-02T04:35:16;81.12;;;38.88;;
44913;SDS011;30650;52.206;20.924;2022-11-02T04:36:13;82.92;;;36.83;;
44913;SDS011;30650;52.206;20.924;2022-11-02T04:37:09;82.25;;;38.42;;
44913;SDS011;30650;52.206;20.924;2022-11-02T04:38:24;90.53;;;40.92;;
44913;SDS011;30650;52.206;20.924;2022-11-02T04:39:36;86.05;;;38.30;;
44913;SDS011;30650;52.206;20.924;2022-11-02T04:40:32;92.05;;;40.28;;
44913;SDS011;30650;52.206;20.924;2022-11-02T04:41:29;95.70;;;40.58;;
44913;SDS011;30650;52.206;20.924;2022-11-02T04:42:38;86.50;;;40.17;;
44913;SDS011;30650;52.206;20.924;2022-11-02T04:43:34;81.75;;;38.10;;
44913;SDS011;30650;52.206;20.924;2022-11-02T04:44:31;92.78;;;41.98;;
44913;SDS011;30650;52.206;20.924;2022-11-02T04:45:27;82.30;;;36.85;;
44913;SDS011;30650;52.206;20.924;2022-11-02T04:46:24;96.20;;;41.18;;
44913;SDS011;30650;52.206;20.924;2022-11-02T04:47:24;87.67;;;40.25;;
44913;SDS011;30650;52.206;20.924;2022-11-02T04:48:21;96.70;;;40.75;;
44913;SDS011;30650;52.206;20.924;2022-11-02T04:49:17;87.05;;;39.95;;
44913;SDS011;30650;52.206;20.924;2022-11-02T04:50:14;85.57;;;41.85;;
44913;SDS011;30650;52.206;20.924;2022-11-02T04:51:10;85.32;;;39.50;;
44913;SDS011;30650;52.206;20.924;2022-11-02T04:52:06;86.87;;;40.08;;
44913;SDS011;30650;52.206;20.924;2022-11-02T04:53:04;85.92;;;39.15;;
44913;SDS011;30650;52.206;20.924;2022-11-02T04:54:03;93.67;;;39.38;;
44913;SDS011;30650;52.206;20.924;2022-11-02T04:54:59;83.75;;;39.98;;
44913;SDS011;30650;52.206;20.924;2022-11-02T04:55:55;84.52;;;39.80;;
44913;SDS011;30650;52.206;20.924;2022-11-02T04:56:52;89.42;;;40.80;;
44913;SDS011;30650;52.206;20.924;2022-11-02T04:57:48;80.32;;;36.85;;
44913;SDS011;30650;52.206;20.924;2022-11-02T04:58:48;92.62;;;41.02;;
44913;SDS011;30650;52.206;20.924;2022-11-02T04:59:47;81.67;;;38.58;;
44913;SDS011;30650;52.206;20.924;2022-11-02T05:00:44;91.15;;;39.80;;
44913;SDS011;30650;52.206;20.924;2022-11-02T05:01:40;80.75;;;38.63;;
44913;SDS011;30650;52.206;20.924;2022-11-02T05:02:36;81.82;;;38.85;;
44913;SDS011;30650;52.206;20.924;2022-11-02T05:03:33;84.37;;;40.55;;
44913;SDS011;30650;52.206;20.924;2022-11-02T05:04:30;89.17;;;38.40;;
44913;SDS011;30650;52.206;20.924;2022-11-02T05:05:27;90.97;;;40.45;;
44913;SDS011;30650;52.206;20.924;2022-11-02T05:06:23;84.52;;;38.67;;
44913;SDS011;30650;52.206;20.924;2022-11-02T05:07:20;79.60;;;39.73;;
44913;SDS011;30650;52.206;20.924;2022-11-02T05:08:16;81.67;;;41.30;;
44913;SDS011;30650;52.206;20.924;2022-11-02T05:09:13;87.85;;;39.53;;
44913;SDS011;30650;52.206;20.924;2022-11-02T05:10:09;91.12;;;39.92;;
44913;SDS011;30650;52.206;20.924;2022-11-02T05:11:07;93.45;;;44.60;;
44913;SDS011;30650;52.206;20.924;2022-11-02T05:12:05;97.75;;;43.87;;
44913;SDS011;30650;52.206;20.924;2022-11-02T05:13:01;86.65;;;39.75;;
44913;SDS011;30650;52.206;20.924;2022-11-02T05:13:58;94.28;;;41.70;;
44913;SDS011;30650;52.206;20.924;2022-11-02T05:14:54;85.67;;;40.35;;
44913;SDS011;30650;52.206;20.924;2022-11-02T05:15:52;87.70;;;41.60;;
44913;SDS011;30650;52.206;20.924;2022-11-02T05:16:53;86.80;;;42.10;;
44913;SDS011;30650;52.206;20.924;2022-11-02T05:17:49;93.58;;;43.63;;
44913;SDS011;30650;52.206;20.924;2022-11-02T05:18:46;82.62;;;39.70;;
44913;SDS011;30650;52.206;20.924;2022-11-02T05:19:43;90.80;;;42.03;;
44913;SDS011;30650;52.206;20.924;2022-11-02T05:20:40;88.27;;;41.30;;
44913;SDS011;30650;52.206;20.924;2022-11-02T05:21:37;93.58;;;40.90;;
44913;SDS011;30650;52.206;20.924;2022-11-02T05:22:34;94.62;;;43.15;;
44913;SDS011;30650;52.206;20.924;2022-11-02T05:23:30;94.42;;;43.13;;
44913;SDS011;30650;52.206;20.924;2022-11-02T05:24:27;104.05;;;44.20;;
44913;SDS011;30650;52.206;20.924;2022-11-02T05:25:23;94.50;;;44.33;;
44913;SDS011;30650;52.206;20.924;2022-11-02T05:26:19;101.18;;;46.70;;
44913;SDS011;30650;52.206;20.924;2022-11-02T05:27:16;97.22;;;44.18;;
44913;SDS011;30650;52.206;20.924;2022-11-02T05:28:12;105.47;;;46.45;;
44913;SDS011;30650;52.206;20.924;2022-11-02T05:29:09;110.80;;;48.10;;
44913;SDS011;30650;52.206;20.924;2022-11-02T05:30:05;104.20;;;47.83;;
44913;SDS011;30650;52.206;20.924;2022-11-02T05:31:03;108.78;;;48.08;;
44913;SDS011;30650;52.206;20.924;2022-11-02T05:32:00;112.92;;;47.95;;
44913;SDS011;30650;52.206;20.924;2022-11-02T05:32:56;107.40;;;48.00;;
44913;SDS011;30650;52.206;20.924;2022-11-02T05:33:53;103.00;;;46.05;;
44913;SDS011;30650;52.206;20.924;2022-11-02T05:34:49;111.68;;;48.00;;
44913;SDS011;30650;52.206;20.924;2022-11-02T05:35:46;105.78;;;44.53;;
44913;SDS011;30650;52.206;20.924;2022-11-02T05:36:42;88.42;;;38.53;;
44913;SDS011;30650;52.206;20.924;2022-11-02T05:37:41;95.40;;;44.80;;
44913;SDS011;30650;52.206;20.924;2022-11-02T05:38:37;103.38;;;43.60;;
44913;SDS011;30650;52.206;20.924;2022-11-02T05:39:33;94.20;;;44.27;;
44913;SDS011;30650;52.206;20.924;2022-11-02T05:40:31;102.78;;;42.27;;
44913;SDS011;30650;52.206;20.924;2022-11-02T05:41:35;103.40;;;43.68;;
44913;SDS011;30650;52.206;20.924;2022-11-02T05:42:32;104.15;;;43.10;;
44913;SDS011;30650;52.206;20.924;2022-11-02T05:43:28;118.95;;;44.65;;
44913;SDS011;30650;52.206;20.924;2022-11-02T05:44:25;96.05;;;43.02;;
44913;SDS011;30650;52.206;20.924;2022-11-02T05:45:22;97.97;;;44.55;;
44913;SDS011;30650;52.206;20.924;2022-11-02T05:46:18;102.40;;;42.27;;
44913;SDS011;30650;52.206;20.924;2022-11-02T05:47:15;101.15;;;43.42;;
44913;SDS011;30650;52.206;20.924;2022-11-02T05:48:11;94.67;;;42.13;;
44913;SDS011;30650;52.206;20.924;2022-11-02T05:49:07;98.42;;;44.35;;
44913;SDS011;30650;52.206;20.924;2022-11-02T05:50:04;98.00;;;45.23;;
44913;SDS011;30650;52.206;20.924;2022-11-02T05:51:02;104.85;;;43.10;;
44913;SDS011;30650;52.206;20.924;2022-11-02T05:51:59;97.37;;;42.70;;
44913;SDS011;30650;52.206;20.924;2022-11-02T05:52:56;100.80;;;43.87;;
44913;SDS011;30650;52.206;20.924;2022-11-02T05:53:52;98.60;;;44.20;;
44913;SDS011;30650;52.206;20.924;2022-11-02T05:54:48;96.30;;;41.75;;
44913;SDS011;30650;52.206;20.924;2022-11-02T05:55:45;99.87;;;45.17;;
44913;SDS011;30650;52.206;20.924;2022-11-02T05:56:41;103.85;;;43.17;;
44913;SDS011;30650;52.206;20.924;2022-11-02T05:57:37;105.25;;;44.05;;
44913;SDS011;30650;52.206;20.924;2022-11-02T05:58:34;104.70;;;42.48;;
44913;SDS011;30650;52.206;20.924;2022-11-02T05:59:31;102.22;;;45.60;;
44913;SDS011;30650;52.206;20.924;2022-11-02T06:00:27;96.25;;;43.30;;
44913;SDS011;30650;52.206;20.924;2022-11-02T06:01:24;102.30;;;43.58;;
44913;SDS011;30650;52.206;20.924;2022-11-02T06:02:20;97.47;;;43.75;;
44913;SDS011;30650;52.206;20.924;2022-11-02T06:03:17;97.60;;;42.90;;
44913;SDS011;30650;52.206;20.924;2022-11-02T06:04:13;97.53;;;41.25;;
44913;SDS011;30650;52.206;20.924;2022-11-02T06:05:09;88.15;;;40.00;;
44913;SDS011;30650;52.206;20.924;2022-11-02T06:06:06;91.25;;;38.63;;
44913;SDS011;30650;52.206;20.924;2022-11-02T06:07:04;89.28;;;38.45;;
44913;SDS011;30650;52.206;20.924;2022-11-02T06:08:01;93.47;;;40.35;;
44913;SDS011;30650;52.206;20.924;2022-11-02T06:08:58;89.55;;;38.42;;
44913;SDS011;30650;52.206;20.924;2022-11-02T06:09:54;96.42;;;41.75;;
44913;SDS011;30650;52.206;20.924;2022-11-02T06:10:51;91.95;;;39.45;;
44913;SDS011;30650;52.206;20.924;2022-11-02T06:11:47;84.47;;;39.73;;
44913;SDS011;30650;52.206;20.924;2022-11-02T06:12:44;80.60;;;37.73;;